Union Deposit, Pennsylvania
Current Conditions -  °F | °C
As of 6:56 AM on Thursday 27 Nov 2014 (Local Time) from KMDT Reporting Station
Broken Clouds Broken Clouds  
Wind Chill: 28°   Ceiling: 7500
Heat Index: 33°   Visibility: 10mi
Dew Point: 27°   Wind: 6mph
Humidity: 78%   Direction: 320°NW
Pressure: 30.01"   Gusts: NA
Location:  40.2634°N, 76.626°W
Report Text: KMDT 271156Z 32005KT 10SM BKN075 01/M03 A3001 RMK AO2 SLP165 4/001 70074 T00061028 10017 20006 53008
Loading
Personal Weather Stations






























Interactive Weather Map New forecast layout! Learn more

10-Day Weather Forecast

Advertisements
Track Severe Weather on mobile